Waco's Hourly Summary for Wednesday, April 19, 2017
Hour Temp
(f)
RH
(%)
Solar Rad.
(MJ/m2)
Rainfall
(in)
Wind
(mph)
4/19/2017 12:00 AM 0 0 0 0 0
4/19/2017 1:00 AM 66 89 0 0 0.89
4/19/2017 2:00 AM 64 91 0 0 0.2
4/19/2017 3:00 AM 65 92 0 0 1.17
4/19/2017 4:00 AM 66 93 0 0 2.07
4/19/2017 5:00 AM 66 93 0 0 2.88
4/19/2017 6:00 AM 66 90 0 0 2.97
4/19/2017 7:00 AM 66 90 0 0 2.7
4/19/2017 8:00 AM 66 87 0.16 0 2.42
4/19/2017 9:00 AM 67 87 0.23 0.01 3.46
4/19/2017 10:00 AM 68 86 0.71 0 4.17
4/19/2017 11:00 AM 71 74 1.53 0 5.47
4/19/2017 12:00 PM 75 66 2.53 0 6.06
4/19/2017 1:00 PM 77 63 3.04 0 6.78
4/19/2017 2:00 PM 79 57 2.75 0 6.24
4/19/2017 3:00 PM 81 55 2.88 0 6.24
4/19/2017 4:00 PM 81 53 2.33 0 6.48
4/19/2017 5:00 PM 82 53 1.82 0 6.63
4/19/2017 6:00 PM 82 53 1.37 0 5.86
4/19/2017 7:00 PM 80 56 0.54 0 5.38
4/19/2017 8:00 PM 78 59 0.2 0 3.5
4/19/2017 9:00 PM 75 69 0 0 2.16
4/19/2017 10:00 PM 73 75 0 0 3.69
4/19/2017 11:00 PM 72 78 0 0 4.33
Data Summary 69 71 20.09 0.01 3.82